createdAt,value
2018-10-18T00:01:07.411Z,0
2018-10-18T00:02:18.305Z,0
2018-10-18T00:03:29.070Z,0
2018-10-18T00:04:39.364Z,0
2018-10-18T00:05:49.529Z,0
2018-10-18T00:06:59.705Z,0
2018-10-18T00:08:10.491Z,0
2018-10-18T00:09:20.851Z,0
2018-10-18T00:10:30.974Z,0
2018-10-18T00:11:44.698Z,0
2018-10-18T00:12:54.987Z,0
2018-10-18T00:14:05.420Z,0
2018-10-18T00:15:15.808Z,0
2018-10-18T00:16:26.021Z,0
2018-10-18T00:17:36.166Z,0
2018-10-18T00:18:46.297Z,0
2018-10-18T00:19:56.502Z,0
2018-10-18T00:21:06.731Z,0
2018-10-18T00:22:16.879Z,0
2018-10-18T00:23:27.019Z,0
2018-10-18T00:24:37.267Z,0
2018-10-18T00:25:47.430Z,0
2018-10-18T00:26:57.575Z,0
2018-10-18T00:28:08.967Z,0
2018-10-18T00:29:19.094Z,0
2018-10-18T00:30:29.037Z,0
2018-10-18T00:31:39.157Z,0
2018-10-18T00:32:49.449Z,0
2018-10-18T00:33:59.621Z,0
2018-10-18T00:35:09.764Z,0
2018-10-18T00:37:33.100Z,0
2018-10-18T00:38:43.367Z,0
2018-10-18T00:39:53.670Z,0
2018-10-18T00:41:03.548Z,0
2018-10-18T00:42:14.242Z,0
2018-10-18T00:43:24.619Z,0
2018-10-18T00:44:34.499Z,0
2018-10-18T00:45:44.711Z,0
2018-10-18T00:46:54.950Z,0
2018-10-18T00:48:05.361Z,0
2018-10-18T00:49:15.671Z,0
2018-10-18T00:50:26.004Z,0
2018-10-18T00:51:36.124Z,0
2018-10-18T00:52:46.246Z,0
2018-10-18T00:53:56.468Z,0
2018-10-18T00:55:06.752Z,0
2018-10-18T00:56:17.286Z,0
2018-10-18T00:57:27.522Z,0
2018-10-18T00:58:37.655Z,0
2018-10-18T00:59:47.897Z,0
2018-10-18T01:00:57.770Z,0
2018-10-18T01:02:08.159Z,0
2018-10-18T01:03:18.523Z,0
2018-10-18T01:04:28.708Z,0
2018-10-18T01:05:38.931Z,0
2018-10-18T01:06:48.859Z,0
2018-10-18T01:07:59.187Z,0
2018-10-18T01:09:09.437Z,0
2018-10-18T01:10:19.563Z,0
2018-10-18T01:11:29.722Z,0
2018-10-18T01:12:40.328Z,0
2018-10-18T01:13:50.958Z,0
2018-10-18T01:15:01.229Z,0
2018-10-18T01:16:11.472Z,0
2018-10-18T01:17:21.712Z,0
2018-10-18T01:18:31.893Z,0
2018-10-18T01:19:42.119Z,0
2018-10-18T01:20:52.306Z,0
2018-10-18T01:22:02.547Z,0
2018-10-18T01:23:12.757Z,0
2018-10-18T01:24:23.186Z,0
2018-10-18T01:25:33.418Z,0
2018-10-18T01:26:43.539Z,0
2018-10-18T01:27:53.747Z,0
2018-10-18T01:29:03.941Z,0
2018-10-18T01:30:14.793Z,0
2018-10-18T01:31:25.036Z,0
2018-10-18T01:32:35.204Z,0
2018-10-18T01:33:45.371Z,0
2018-10-18T01:34:55.748Z,0
2018-10-18T01:36:06.193Z,0
2018-10-18T01:37:16.713Z,0
2018-10-18T01:38:26.849Z,0
2018-10-18T01:39:36.822Z,0
2018-10-18T01:40:46.973Z,0
2018-10-18T01:41:57.257Z,0
2018-10-18T01:43:07.557Z,0
2018-10-18T01:44:18.170Z,0
2018-10-18T01:45:28.317Z,0
2018-10-18T01:46:38.507Z,0
2018-10-18T01:47:48.675Z,0
2018-10-18T01:48:58.845Z,0
2018-10-18T01:50:09.569Z,0
2018-10-18T01:54:16.229Z,0
2018-10-18T01:55:26.600Z,0
2018-10-18T01:56:36.711Z,0
2018-10-18T01:57:46.837Z,0
2018-10-18T01:58:56.950Z,0
2018-10-18T02:00:07.404Z,0
2018-10-18T02:01:17.707Z,0
2018-10-18T02:02:27.828Z,0
2018-10-18T02:03:37.948Z,0
2018-10-18T02:04:47.821Z,0
2018-10-18T02:05:57.969Z,0
2018-10-18T02:07:08.226Z,0
2018-10-18T02:08:18.475Z,0
2018-10-18T02:09:28.687Z,0
2018-10-18T02:10:38.824Z,0
2018-10-18T02:11:49.045Z,0
2018-10-18T02:12:58.977Z,0
2018-10-18T02:14:09.100Z,0
2018-10-18T02:15:18.959Z,0
2018-10-18T02:16:29.083Z,0
2018-10-18T02:17:38.837Z,0
2018-10-18T02:18:48.711Z,0
2018-10-18T02:19:58.858Z,0
2018-10-18T02:21:08.976Z,0
2018-10-18T02:22:19.098Z,0
2018-10-18T02:23:29.214Z,0
2018-10-18T02:24:39.328Z,0
2018-10-18T02:25:49.486Z,0
2018-10-18T02:26:59.598Z,0
2018-10-18T02:28:09.710Z,0
2018-10-18T02:29:19.828Z,0
2018-10-18T02:30:30.096Z,0
2018-10-18T02:31:40.206Z,0
2018-10-18T02:32:50.327Z,0
2018-10-18T02:34:00.459Z,0
2018-10-18T02:35:10.584Z,0
2018-10-18T02:36:21.258Z,0
2018-10-18T02:37:31.717Z,0
2018-10-18T02:38:41.838Z,0
2018-10-18T02:39:51.968Z,0
2018-10-18T02:41:02.171Z,0
2018-10-18T02:42:12.817Z,0
2018-10-18T02:43:23.138Z,0
2018-10-18T02:44:33.263Z,0
2018-10-18T02:45:43.390Z,0
2018-10-18T02:46:53.537Z,0
2018-10-18T02:48:03.908Z,0
2018-10-18T02:49:14.188Z,0
2018-10-18T02:50:24.345Z,0
2018-10-18T02:51:34.469Z,0
2018-10-18T02:52:44.578Z,0
2018-10-18T02:53:54.707Z,0
2018-10-18T02:55:04.904Z,0
2018-10-18T02:56:15.015Z,0
2018-10-18T02:57:25.123Z,0
2018-10-18T02:58:35.254Z,0
2018-10-18T02:59:45.569Z,0
2018-10-18T03:00:55.689Z,0
2018-10-18T03:02:05.538Z,0
2018-10-18T03:03:15.649Z,0
2018-10-18T03:04:25.740Z,0
2018-10-18T03:05:35.499Z,0
2018-10-18T03:06:45.609Z,0
2018-10-18T03:07:55.733Z,0
2018-10-18T03:09:05.863Z,0
2018-10-18T03:10:15.974Z,0
2018-10-18T03:11:26.090Z,0
2018-10-18T03:12:36.222Z,0
2018-10-18T03:13:46.385Z,0
2018-10-18T03:14:56.507Z,0
2018-10-18T03:16:07.045Z,0
2018-10-18T03:17:17.553Z,0
2018-10-18T03:18:27.717Z,0
2018-10-18T03:19:37.855Z,0
2018-10-18T03:20:47.985Z,0
2018-10-18T03:21:57.852Z,0
2018-10-18T03:23:07.978Z,0
2018-10-18T03:24:18.744Z,0
2018-10-18T03:25:29.053Z,0
2018-10-18T03:26:39.167Z,0
2018-10-18T03:27:49.287Z,0
2018-10-18T03:28:59.401Z,0
2018-10-18T03:30:10.024Z,0
2018-10-18T03:31:20.445Z,0
2018-10-18T03:32:30.571Z,0
2018-10-18T03:33:40.701Z,0
2018-10-18T03:34:50.826Z,0
2018-10-18T03:36:01.023Z,0
2018-10-18T03:37:11.277Z,0
2018-10-18T03:38:21.390Z,0
2018-10-18T03:39:31.524Z,0
2018-10-18T03:40:41.644Z,0
2018-10-18T03:41:52.067Z,0
2018-10-18T03:43:02.265Z,0
2018-10-18T03:44:12.391Z,0
2018-10-18T03:45:22.508Z,0
2018-10-18T03:46:32.630Z,0
2018-10-18T03:47:42.737Z,0
2018-10-18T03:48:52.843Z,0
2018-10-18T03:50:03.972Z,0
2018-10-18T03:51:14.109Z,0
2018-10-18T03:52:24.234Z,0
2018-10-18T03:53:34.358Z,0
2018-10-18T03:54:44.482Z,0
2018-10-18T03:55:54.597Z,0
2018-10-18T03:57:04.736Z,0
2018-10-18T03:58:14.898Z,0
2018-10-18T03:59:25.060Z,0
2018-10-18T04:00:35.238Z,0
2018-10-18T04:01:45.360Z,0
2018-10-18T04:02:55.503Z,0
2018-10-18T04:04:05.624Z,0
2018-10-18T04:05:15.756Z,0
2018-10-18T04:06:25.816Z,0
2018-10-18T04:07:35.935Z,0
2018-10-18T04:08:46.060Z,0
2018-10-18T04:09:56.176Z,0
2018-10-18T04:11:06.293Z,0
2018-10-18T04:12:17.147Z,0
2018-10-18T04:13:27.802Z,0
2018-10-18T04:14:37.931Z,0
2018-10-18T04:15:48.062Z,0
2018-10-18T04:16:58.195Z,0
2018-10-18T04:18:09.159Z,0
2018-10-18T04:19:19.672Z,0
2018-10-18T04:20:29.777Z,0
2018-10-18T04:21:39.935Z,0
2018-10-18T04:22:50.048Z,0
2018-10-18T04:24:00.336Z,0
2018-10-18T04:25:10.577Z,0
2018-10-18T04:26:20.697Z,0
2018-10-18T04:27:30.867Z,0
2018-10-18T04:28:41.003Z,0
2018-10-18T04:29:51.090Z,0
2018-10-18T04:31:01.222Z,0
2018-10-18T04:32:11.346Z,0
2018-10-18T04:33:21.465Z,0
2018-10-18T04:34:31.598Z,0
2018-10-18T04:35:41.730Z,0
2018-10-18T04:36:51.853Z,0
2018-10-18T04:38:02.002Z,0
2018-10-18T04:39:12.361Z,0
2018-10-18T04:40:22.489Z,0
2018-10-18T04:41:32.617Z,0
2018-10-18T04:42:42.755Z,0
2018-10-18T04:43:52.881Z,0
2018-10-18T04:45:03.227Z,0
2018-10-18T04:46:13.341Z,0
2018-10-18T04:47:24.092Z,0
2018-10-18T04:48:35.186Z,0
2018-10-18T04:49:45.653Z,0
2018-10-18T04:50:57.394Z,0
2018-10-18T04:52:08.136Z,0
2018-10-18T04:53:18.262Z,0
2018-10-18T04:54:28.384Z,0
2018-10-18T04:55:38.513Z,0
2018-10-18T04:56:48.992Z,0
2018-10-18T04:57:59.317Z,0
2018-10-18T04:59:09.450Z,0
2018-10-18T05:00:19.329Z,0
2018-10-18T05:01:30.155Z,0
2018-10-18T05:02:40.682Z,0
2018-10-18T05:03:51.037Z,0
2018-10-18T05:05:01.317Z,0
2018-10-18T05:06:11.436Z,0
2018-10-18T05:07:22.115Z,0
2018-10-18T05:08:32.228Z,0
2018-10-18T05:09:42.340Z,0
2018-10-18T05:10:52.457Z,0
2018-10-18T05:12:02.606Z,4
2018-10-18T05:13:12.922Z,4
2018-10-18T05:14:23.282Z,0
2018-10-18T05:15:33.423Z,4
2018-10-18T05:16:43.547Z,0
2018-10-18T05:17:53.661Z,4
2018-10-18T05:19:04.083Z,4
2018-10-18T05:20:14.414Z,4
2018-10-18T05:21:24.538Z,4
2018-10-18T05:22:34.647Z,8
2018-10-18T05:23:44.948Z,8
2018-10-18T05:24:55.377Z,8
2018-10-18T05:26:05.646Z,12
2018-10-18T05:27:15.754Z,16
2018-10-18T05:28:25.862Z,20
2018-10-18T05:29:35.975Z,20
2018-10-18T05:30:46.100Z,24
2018-10-18T05:31:56.470Z,32
2018-10-18T05:33:06.586Z,36
2018-10-18T05:34:16.927Z,40
2018-10-18T05:35:27.268Z,48
2018-10-18T05:36:37.379Z,56
2018-10-18T05:37:48.179Z,68
2018-10-18T05:38:58.454Z,72
2018-10-18T05:40:08.591Z,72
2018-10-18T05:41:18.743Z,76
2018-10-18T05:42:28.615Z,80
2018-10-18T05:43:38.718Z,80
2018-10-18T05:44:48.842Z,80
2018-10-18T05:45:58.963Z,88
2018-10-18T05:47:09.362Z,96
2018-10-18T05:48:19.730Z,100
2018-10-18T05:49:29.854Z,108
2018-10-18T05:50:39.970Z,116
2018-10-18T05:51:50.093Z,124
2018-10-18T05:53:00.532Z,132
2018-10-18T05:54:10.649Z,148
2018-10-18T05:55:21.471Z,164
2018-10-18T05:56:31.612Z,168
2018-10-18T05:57:41.487Z,176
2018-10-18T05:58:51.594Z,192
2018-10-18T06:00:01.783Z,196
2018-10-18T06:01:12.369Z,196
2018-10-18T06:02:22.775Z,200
2018-10-18T06:03:32.905Z,212
2018-10-18T06:04:43.029Z,228
2018-10-18T06:05:53.148Z,248
2018-10-18T06:07:03.448Z,272
2018-10-18T06:08:13.724Z,284
2018-10-18T06:09:23.844Z,264
2018-10-18T06:10:34.521Z,268
2018-10-18T06:11:44.959Z,260
2018-10-18T06:12:55.188Z,260
2018-10-18T06:14:05.002Z,260
2018-10-18T06:15:15.121Z,252
2018-10-18T06:16:25.224Z,276
2018-10-18T06:17:35.348Z,300
2018-10-18T06:18:45.464Z,308
2018-10-18T06:19:55.594Z,336
2018-10-18T06:21:05.664Z,336
2018-10-18T06:22:15.781Z,332
2018-10-18T06:23:26.500Z,340
2018-10-18T06:24:36.916Z,332
2018-10-18T06:25:46.786Z,328
2018-10-18T06:26:57.021Z,352
2018-10-18T06:28:07.146Z,336
2018-10-18T06:29:17.643Z,352
2018-10-18T06:30:27.842Z,348
2018-10-18T06:31:37.961Z,364
2018-10-18T06:32:48.083Z,428
2018-10-18T06:33:57.978Z,396
2018-10-18T06:35:08.401Z,424
2018-10-18T06:36:18.658Z,428
2018-10-18T06:37:29.074Z,464
2018-10-18T06:38:39.332Z,444
2018-10-18T06:39:49.451Z,424
2018-10-18T06:40:59.709Z,440
2018-10-18T06:42:09.899Z,412
2018-10-18T06:43:19.990Z,412
2018-10-18T06:44:30.119Z,428
2018-10-18T06:45:40.236Z,452
2018-10-18T06:46:50.173Z,472
2018-10-18T06:48:01.598Z,472
2018-10-18T06:49:12.554Z,500
2018-10-18T06:50:23.193Z,524
2018-10-18T06:51:33.310Z,536
2018-10-18T06:52:42.929Z,552
2018-10-18T06:53:53.085Z,596
2018-10-18T06:55:03.506Z,620
2018-10-18T06:56:13.726Z,696
2018-10-18T06:57:23.595Z,712
2018-10-18T06:58:33.723Z,700
2018-10-18T06:59:43.592Z,620
2018-10-18T07:00:53.857Z,588
2018-10-18T07:02:04.227Z,624
2018-10-18T07:03:14.600Z,652
2018-10-18T07:04:24.713Z,640
2018-10-18T07:05:34.839Z,624
2018-10-18T07:06:44.962Z,668
2018-10-18T07:07:55.121Z,688
2018-10-18T07:09:05.166Z,744
2018-10-18T07:10:15.294Z,780
2018-10-18T07:11:25.433Z,908
2018-10-18T07:12:35.406Z,984
2018-10-18T07:13:45.525Z,1168
2018-10-18T07:14:55.668Z,1264
2018-10-18T07:16:05.788Z,1224
2018-10-18T07:17:15.917Z,1188
2018-10-18T07:18:26.136Z,1192
2018-10-18T07:19:36.258Z,1284
2018-10-18T07:20:46.393Z,1224
2018-10-18T07:21:56.558Z,1368
2018-10-18T07:23:06.437Z,1416
2018-10-18T07:24:17.114Z,1452
2018-10-18T07:25:27.829Z,1584
2018-10-18T07:26:37.821Z,1428
2018-10-18T07:27:47.935Z,1420
2018-10-18T07:28:58.062Z,1568
2018-10-18T07:30:08.596Z,1492
2018-10-18T07:31:18.964Z,1508
2018-10-18T07:32:29.100Z,1632
2018-10-18T07:33:39.219Z,1736
2018-10-18T07:34:49.468Z,1804
2018-10-18T07:35:59.828Z,1876
2018-10-18T07:37:10.018Z,1852
2018-10-18T07:38:20.149Z,1868
2018-10-18T07:39:30.276Z,2168
2018-10-18T07:40:40.429Z,2208
2018-10-18T07:41:50.551Z,2096
2018-10-18T07:43:00.715Z,2092
2018-10-18T07:44:10.849Z,2120
2018-10-18T07:45:20.988Z,2556
2018-10-18T07:46:31.121Z,2320
2018-10-18T07:47:41.249Z,2328
2018-10-18T07:48:51.413Z,2476
2018-10-18T07:50:01.548Z,2308
2018-10-18T07:51:11.937Z,2628
2018-10-18T07:52:22.065Z,2892
2018-10-18T07:53:32.533Z,2680
2018-10-18T07:54:42.843Z,2764
2018-10-18T07:55:52.972Z,3368
2018-10-18T07:57:03.143Z,3452
2018-10-18T07:58:13.261Z,2992
2018-10-18T07:59:23.397Z,3168
2018-10-18T08:00:34.023Z,2772
2018-10-18T08:01:43.917Z,3028
2018-10-18T08:02:53.776Z,2768
2018-10-18T08:04:03.923Z,2996
2018-10-18T08:05:14.043Z,2908
2018-10-18T08:06:24.171Z,3044
2018-10-18T08:07:34.307Z,3208
2018-10-18T08:08:44.430Z,3000
2018-10-18T08:09:54.726Z,3080
2018-10-18T08:11:05.325Z,2976
2018-10-18T08:12:15.688Z,2956
2018-10-18T08:13:25.940Z,3104
2018-10-18T08:14:36.075Z,3188
2018-10-18T08:15:46.217Z,2908
2018-10-18T08:16:56.752Z,3068
2018-10-18T08:18:06.702Z,2556
2018-10-18T08:19:17.579Z,2444
2018-10-18T08:20:28.009Z,2288
2018-10-18T08:21:38.140Z,2108
2018-10-18T08:22:48.649Z,2248
2018-10-18T08:23:59.018Z,1904
2018-10-18T08:25:09.657Z,1984
2018-10-18T08:26:20.009Z,1808
2018-10-18T08:27:30.143Z,1912
2018-10-18T08:28:40.018Z,1772
2018-10-18T08:29:49.889Z,1672
2018-10-18T08:31:00.232Z,1604
2018-10-18T08:32:10.434Z,1816
2018-10-18T08:33:20.561Z,1864
2018-10-18T08:34:30.690Z,1820
2018-10-18T08:35:40.798Z,2116
2018-10-18T08:36:51.132Z,2204
2018-10-18T08:38:02.352Z,2432
2018-10-18T08:39:12.947Z,2712
2018-10-18T08:40:22.699Z,2772
2018-10-18T08:41:32.847Z,2676
2018-10-18T08:42:42.970Z,3068
2018-10-18T08:43:53.199Z,3024
2018-10-18T08:45:03.617Z,2868
2018-10-18T08:46:13.741Z,2752
2018-10-18T08:47:23.852Z,2644
2018-10-18T08:48:33.979Z,2516
2018-10-18T08:49:43.923Z,2764
2018-10-18T08:50:54.262Z,2472
2018-10-18T08:52:04.377Z,2816
2018-10-18T08:53:14.541Z,2820
2018-10-18T08:54:24.732Z,2800
2018-10-18T08:55:35.172Z,2736
2018-10-18T08:56:45.441Z,2908
2018-10-18T08:57:55.578Z,2676
2018-10-18T08:59:05.798Z,2516
2018-10-18T09:00:16.096Z,2428
2018-10-18T09:01:26.200Z,2492
2018-10-18T09:02:36.327Z,2420
2018-10-18T09:03:46.447Z,2228
2018-10-18T09:04:56.316Z,1960
2018-10-18T09:06:06.444Z,2036
2018-10-18T09:07:16.974Z,2076
2018-10-18T09:08:27.170Z,1984
2018-10-18T09:09:37.294Z,1888
2018-10-18T09:10:47.150Z,1860
2018-10-18T09:11:57.278Z,1756
2018-10-18T09:13:07.752Z,2108
2018-10-18T09:14:18.135Z,2096
2018-10-18T09:15:28.291Z,2360
2018-10-18T09:16:38.437Z,2392
2018-10-18T09:17:48.568Z,2564
2018-10-18T09:18:58.877Z,3076
2018-10-18T09:20:09.027Z,3136
2018-10-18T09:21:18.963Z,3248
2018-10-18T09:22:29.102Z,2888
2018-10-18T09:23:39.389Z,3212
2018-10-18T09:24:49.579Z,3652
2018-10-18T09:25:59.761Z,3508
2018-10-18T09:27:09.898Z,3908
2018-10-18T09:28:20.050Z,3796
2018-10-18T09:29:30.160Z,3948
2018-10-18T09:30:40.274Z,3560
2018-10-18T09:31:50.413Z,3584
2018-10-18T09:33:00.527Z,3496
2018-10-18T09:34:10.869Z,3432
2018-10-18T09:35:21.025Z,3576
2018-10-18T09:36:31.167Z,3448
2018-10-18T09:37:41.306Z,3136
2018-10-18T09:38:51.432Z,3336
2018-10-18T09:40:01.327Z,3220
2018-10-18T09:41:11.696Z,3272
2018-10-18T09:42:21.847Z,3192
2018-10-18T09:43:31.974Z,3132
2018-10-18T09:44:42.292Z,3084
2018-10-18T09:45:52.729Z,3136
2018-10-18T09:47:02.865Z,3288
2018-10-18T09:48:12.996Z,3324
2018-10-18T09:49:23.467Z,3352
2018-10-18T09:50:33.598Z,3228
2018-10-18T09:51:43.818Z,3156
2018-10-18T09:52:54.165Z,3076
2018-10-18T09:54:04.423Z,3724
2018-10-18T09:55:15.320Z,3748
2018-10-18T09:56:25.921Z,3628
2018-10-18T09:57:35.794Z,3764
2018-10-18T09:58:45.923Z,3948
2018-10-18T09:59:56.058Z,3696
2018-10-18T10:01:06.407Z,3428
2018-10-18T10:02:16.726Z,3424
2018-10-18T10:03:26.846Z,3220
2018-10-18T10:04:37.791Z,3480
2018-10-18T10:05:47.913Z,4068
2018-10-18T10:06:58.146Z,3868
2018-10-18T10:08:08.303Z,4180
2018-10-18T10:09:18.447Z,3948
2018-10-18T10:10:33.362Z,3720
2018-10-18T10:12:59.833Z,3548
2018-10-18T10:14:10.168Z,3612
2018-10-18T10:15:20.323Z,3276
2018-10-18T10:16:30.441Z,3192
2018-10-18T10:17:41.067Z,2904
2018-10-18T10:18:51.407Z,2712
2018-10-18T10:20:01.543Z,2364
2018-10-18T10:21:11.653Z,2380
2018-10-18T10:22:21.793Z,2444
2018-10-18T10:23:31.934Z,2444
2018-10-18T10:24:42.620Z,2308
2018-10-18T10:25:53.003Z,2324
2018-10-18T10:27:03.361Z,2204
2018-10-18T10:28:13.518Z,2180
2018-10-18T10:29:23.650Z,2040
2018-10-18T10:30:34.366Z,1960
2018-10-18T10:31:44.502Z,2136
2018-10-18T10:32:55.066Z,2164
2018-10-18T10:34:05.588Z,2308
2018-10-18T10:35:15.903Z,2372
2018-10-18T10:36:25.769Z,2220
2018-10-18T10:37:35.898Z,2284
2018-10-18T10:38:46.251Z,2508
2018-10-18T10:39:56.226Z,3956
2018-10-18T10:41:06.660Z,5764
2018-10-18T10:42:17.002Z,6176
2018-10-18T10:43:27.400Z,6972
2018-10-18T10:44:37.665Z,6836
2018-10-18T10:45:48.017Z,6056
2018-10-18T10:46:58.591Z,5264
2018-10-18T10:48:09.059Z,5440
2018-10-18T10:49:20.046Z,5452
2018-10-18T10:50:30.283Z,4740
2018-10-18T10:51:40.418Z,4244
2018-10-18T10:52:50.572Z,3876
2018-10-18T10:54:00.864Z,3900
2018-10-18T10:55:11.100Z,3584
2018-10-18T10:56:21.773Z,3556
2018-10-18T10:57:31.946Z,3504
2018-10-18T10:58:42.080Z,3460
2018-10-18T10:59:52.246Z,3320
2018-10-18T11:01:02.386Z,3000
2018-10-18T11:02:12.851Z,3296
2018-10-18T11:03:23.449Z,3128
2018-10-18T11:04:33.577Z,2920
2018-10-18T11:05:43.720Z,2960
2018-10-18T11:06:53.861Z,3076
2018-10-18T11:08:04.113Z,3008
2018-10-18T11:09:14.922Z,3084
2018-10-18T11:10:25.550Z,3096
2018-10-18T11:11:35.694Z,3012
2018-10-18T11:12:45.857Z,3048
2018-10-18T11:13:56.306Z,3108
2018-10-18T11:15:06.819Z,2872
2018-10-18T11:16:16.998Z,3036
2018-10-18T11:17:27.549Z,3136
2018-10-18T11:18:37.698Z,3200
2018-10-18T11:19:47.839Z,3032
2018-10-18T11:20:58.072Z,2952
2018-10-18T11:22:08.290Z,2980
2018-10-18T11:23:18.429Z,2924
2018-10-18T11:24:28.786Z,2860
2018-10-18T11:25:39.051Z,2992
2018-10-18T11:26:49.203Z,3440
2018-10-18T11:27:59.439Z,4160
2018-10-18T11:29:09.563Z,4360
2018-10-18T11:30:20.354Z,4248
2018-10-18T11:31:30.340Z,4332
2018-10-18T11:32:40.683Z,4864
2018-10-18T11:33:50.549Z,4420
2018-10-18T11:35:00.704Z,4440
2018-10-18T11:36:11.170Z,4544
2018-10-18T11:37:21.603Z,4164
2018-10-18T11:38:31.789Z,4300
2018-10-18T11:39:42.015Z,4760
2018-10-18T11:40:53.160Z,4828
2018-10-18T11:42:03.977Z,4216
2018-10-18T11:43:14.931Z,4268
2018-10-18T11:44:26.332Z,4040
2018-10-18T11:45:37.687Z,4072
2018-10-18T11:46:50.450Z,4596
2018-10-18T11:48:04.233Z,4456
2018-10-18T11:49:15.329Z,4496
2018-10-18T11:50:25.787Z,4048
2018-10-18T11:51:36.471Z,4456
2018-10-18T11:52:46.889Z,4728
2018-10-18T11:53:57.170Z,4644
2018-10-18T11:55:07.498Z,4572
2018-10-18T11:56:18.242Z,4668
2018-10-18T11:57:28.435Z,4368
2018-10-18T11:58:38.650Z,4176
2018-10-18T11:59:48.783Z,3820
2018-10-18T12:00:58.686Z,3460
2018-10-18T12:02:09.378Z,3384
2018-10-18T12:03:19.715Z,3472
2018-10-18T12:04:29.894Z,3836
2018-10-18T12:05:40.018Z,3688
2018-10-18T12:06:50.144Z,3516
2018-10-18T12:08:00.454Z,3648
2018-10-18T12:09:10.413Z,3584
2018-10-18T12:10:20.529Z,3552
2018-10-18T12:11:30.673Z,3412
2018-10-18T12:12:40.808Z,3612
2018-10-18T12:13:50.929Z,4764
2018-10-18T12:15:01.095Z,6096
2018-10-18T12:16:11.229Z,9808
2018-10-18T12:17:21.612Z,11512
2018-10-18T12:18:31.751Z,9296
2018-10-18T12:19:41.911Z,7492
2018-10-18T12:20:52.046Z,6256
2018-10-18T12:22:02.208Z,5660
2018-10-18T12:23:12.652Z,5460
2018-10-18T12:24:22.990Z,5356
2018-10-18T12:25:33.138Z,5052
2018-10-18T12:26:43.408Z,4716
2018-10-18T12:27:53.581Z,4712
2018-10-18T12:29:03.930Z,4756
2018-10-18T12:30:14.230Z,4584
2018-10-18T12:31:24.103Z,4324
2018-10-18T12:32:33.999Z,4132
2018-10-18T12:33:44.126Z,4032
2018-10-18T12:34:54.299Z,3496
2018-10-18T12:36:04.489Z,3232
2018-10-18T12:37:14.618Z,2916
2018-10-18T12:38:24.918Z,2972
2018-10-18T12:39:35.350Z,3176
2018-10-18T12:40:45.952Z,3560
2018-10-18T12:41:56.569Z,4092
2018-10-18T12:43:06.875Z,4428
2018-10-18T12:44:17.662Z,4324
2018-10-18T12:45:27.876Z,4004
2018-10-18T12:46:37.993Z,3520
2018-10-18T12:47:48.132Z,3508
2018-10-18T12:48:58.289Z,3408
2018-10-18T12:50:08.909Z,3336
2018-10-18T12:51:19.355Z,3052
2018-10-18T12:52:29.505Z,2668
2018-10-18T12:53:39.675Z,2396
2018-10-18T12:54:49.993Z,2316
2018-10-18T12:56:00.218Z,2120
2018-10-18T12:57:10.474Z,2136
2018-10-18T12:58:20.616Z,2284
2018-10-18T12:59:30.781Z,2556
2018-10-18T13:00:40.910Z,2652
2018-10-18T13:01:51.167Z,2716
2018-10-18T13:03:01.099Z,2836
2018-10-18T13:04:11.227Z,3052
2018-10-18T13:05:21.378Z,3352
2018-10-18T13:06:31.543Z,3628
2018-10-18T13:07:41.675Z,3804
2018-10-18T13:08:51.434Z,4172
2018-10-18T13:10:01.657Z,4536
2018-10-18T13:11:11.803Z,4664
2018-10-18T13:12:22.811Z,4672
2018-10-18T13:13:33.541Z,4528
2018-10-18T13:14:43.698Z,4180
2018-10-18T13:15:53.865Z,3968
2018-10-18T13:17:03.752Z,3672
2018-10-18T13:18:14.626Z,3384
2018-10-18T13:19:25.147Z,3144
2018-10-18T13:20:35.288Z,3116
2018-10-18T13:21:45.418Z,3044
2018-10-18T13:22:55.821Z,2948
2018-10-18T13:24:06.530Z,2840
2018-10-18T13:25:17.044Z,2688
2018-10-18T13:26:27.317Z,2616
2018-10-18T13:27:37.447Z,2500
2018-10-18T13:28:47.589Z,2296
2018-10-18T13:29:57.851Z,2184
2018-10-18T13:31:08.050Z,2172
2018-10-18T13:32:18.615Z,2212
2018-10-18T13:33:28.501Z,2288
2018-10-18T13:34:38.638Z,2312
2018-10-18T13:35:48.764Z,2324
2018-10-18T13:36:58.903Z,2304
2018-10-18T13:38:09.472Z,2252
2018-10-18T13:39:20.165Z,2300
2018-10-18T13:40:30.389Z,2420
2018-10-18T13:41:40.656Z,2612
2018-10-18T13:42:50.551Z,2776
2018-10-18T13:44:00.528Z,2936
2018-10-18T13:45:11.069Z,3028
2018-10-18T13:46:21.377Z,3088
2018-10-18T13:47:31.633Z,2912
2018-10-18T13:48:41.843Z,2760
2018-10-18T13:49:52.071Z,2480
2018-10-18T13:51:02.276Z,2336
2018-10-18T13:52:12.059Z,2292
2018-10-18T13:53:22.202Z,2208
2018-10-18T13:54:31.985Z,2124
2018-10-18T13:55:42.153Z,2060
2018-10-18T13:56:52.311Z,2072
2018-10-18T13:58:02.506Z,1992
2018-10-18T13:59:13.202Z,1932
2018-10-18T14:00:24.136Z,1908
2018-10-18T14:01:34.465Z,1968
2018-10-18T14:02:44.617Z,1988
2018-10-18T14:03:54.501Z,1844
2018-10-18T14:05:04.981Z,1680
2018-10-18T14:06:15.362Z,1552
2018-10-18T14:07:25.558Z,1448
2018-10-18T14:08:36.448Z,1380
2018-10-18T14:09:46.998Z,1332
2018-10-18T14:10:57.192Z,1352
2018-10-18T14:12:07.395Z,1364
2018-10-18T14:13:17.281Z,1396
2018-10-18T14:14:27.432Z,1452
2018-10-18T14:15:37.603Z,1520
2018-10-18T14:16:47.757Z,1584
2018-10-18T14:17:58.500Z,1648
2018-10-18T14:19:08.770Z,1784
2018-10-18T14:20:19.160Z,1880
2018-10-18T14:21:29.468Z,1972
2018-10-18T14:22:39.602Z,2168
2018-10-18T14:23:49.481Z,2256
2018-10-18T14:24:59.644Z,2292
2018-10-18T14:26:10.083Z,2368
2018-10-18T14:27:20.520Z,2432
2018-10-18T14:28:30.410Z,2524
2018-10-18T14:29:40.552Z,2568
2018-10-18T14:30:51.131Z,2516
2018-10-18T14:32:01.678Z,2456
2018-10-18T14:33:11.947Z,2416
2018-10-18T14:34:22.093Z,2448
2018-10-18T14:35:32.248Z,2404
2018-10-18T14:36:42.419Z,2372
2018-10-18T14:37:52.642Z,2256
2018-10-18T14:39:03.221Z,2204
2018-10-18T14:40:13.640Z,2164
2018-10-18T14:41:24.078Z,2116
2018-10-18T14:42:34.249Z,2100
2018-10-18T14:43:44.561Z,2100
2018-10-18T14:44:55.330Z,2132
2018-10-18T14:46:05.690Z,2192
2018-10-18T14:47:16.314Z,2368
2018-10-18T14:48:26.984Z,2480
2018-10-18T14:49:37.157Z,2476
2018-10-18T14:50:47.851Z,2188
2018-10-18T14:51:57.880Z,1840
2018-10-18T14:53:08.362Z,1648
2018-10-18T14:54:18.664Z,1436
2018-10-18T14:55:28.813Z,1164
2018-10-18T14:56:38.983Z,928
2018-10-18T14:57:49.117Z,776
2018-10-18T14:58:59.355Z,672
2018-10-18T15:00:09.614Z,588
2018-10-18T15:01:19.780Z,488
2018-10-18T15:02:29.967Z,412
2018-10-18T15:03:40.171Z,352
2018-10-18T15:04:50.585Z,316
2018-10-18T15:06:00.776Z,336
2018-10-18T15:07:10.943Z,376
2018-10-18T15:08:21.316Z,376
2018-10-18T15:09:31.241Z,360
2018-10-18T15:10:41.408Z,348
2018-10-18T15:11:51.547Z,328
2018-10-18T15:13:01.702Z,316
2018-10-18T15:14:12.107Z,320
2018-10-18T15:15:22.483Z,316
2018-10-18T15:16:32.627Z,316
2018-10-18T15:17:42.757Z,296
2018-10-18T15:18:52.911Z,276
2018-10-18T15:20:03.306Z,304
2018-10-18T15:21:13.638Z,356
2018-10-18T15:22:23.808Z,368
2018-10-18T15:23:33.986Z,360
2018-10-18T15:24:44.157Z,348
2018-10-18T15:25:55.331Z,352
2018-10-18T15:27:06.205Z,372
2018-10-18T15:28:16.583Z,364
2018-10-18T15:29:26.849Z,348
2018-10-18T15:30:37.030Z,324
2018-10-18T15:31:47.299Z,312
2018-10-18T15:32:57.693Z,308
2018-10-18T15:34:07.909Z,312
2018-10-18T15:35:20.050Z,324
2018-10-18T15:36:30.222Z,324
2018-10-18T15:37:40.389Z,316
2018-10-18T15:38:51.351Z,304
2018-10-18T15:40:01.844Z,296
2018-10-18T15:41:12.346Z,296
2018-10-18T15:42:22.916Z,296
2018-10-18T15:43:33.063Z,288
2018-10-18T15:44:43.250Z,280
2018-10-18T15:45:53.419Z,280
2018-10-18T15:47:03.799Z,280
2018-10-18T15:48:14.095Z,276
2018-10-18T15:49:24.271Z,268
2018-10-18T15:50:34.463Z,256
2018-10-18T15:51:44.652Z,244
2018-10-18T15:52:54.822Z,236
2018-10-18T15:54:05.234Z,220
2018-10-18T15:55:15.587Z,208
2018-10-18T15:56:25.830Z,196
2018-10-18T15:57:35.987Z,188
2018-10-18T15:58:45.892Z,204
2018-10-18T15:59:56.406Z,192
2018-10-18T16:01:06.307Z,176
2018-10-18T16:02:16.486Z,152
2018-10-18T16:03:26.898Z,124
2018-10-18T16:04:37.110Z,104
2018-10-18T16:05:47.260Z,80
2018-10-18T16:06:57.417Z,60
2018-10-18T16:08:07.590Z,52
2018-10-18T16:09:17.800Z,44
2018-10-18T16:10:27.963Z,40
2018-10-18T16:11:38.383Z,36
2018-10-18T16:12:48.600Z,32
2018-10-18T16:13:58.943Z,32
2018-10-18T16:15:09.211Z,28
2018-10-18T16:16:19.380Z,28
2018-10-18T16:17:29.565Z,24
2018-10-18T16:18:39.788Z,16
2018-10-18T16:19:49.984Z,16
2018-10-18T16:21:00.157Z,16